Time;durP1;ratioP1;P1;durP2;ratioP2;P2;SDS_P1;SDS_P2;PMS_P1;PMS_P2;Temp;Humidity;BMP_temperature;BMP_pressure;BME280_temperature;BME280_humidity;BME280_pressure;Samples;Min_cycle;Max_cycle;Signal;HPM_P1;HPM_P2
2021/01/23 00:01:02;;;;;;;13.50;4.82;;;;;;;6.96;73.25;99436.97;5089452;28;20036;-72
2021/01/23 00:03:29;;;;;;;12.32;4.65;;;;;;;7.12;72.92;99438.13;5086471;28;20067;-73
2021/01/23 00:05:56;;;;;;;11.77;4.70;;;;;;;7.00;72.75;99428.91;5094717;28;20048;-65
2021/01/23 00:08:23;;;;;;;10.75;4.70;;;;;;;6.96;73.21;99426.03;5094849;28;20055;-70
2021/01/23 00:10:50;;;;;;;16.52;5.40;;;;;;;7.20;72.66;99420.88;5094498;28;20052;-70
2021/01/23 00:13:18;;;;;;;13.35;4.75;;;;;;;7.35;72.85;99420.41;5076440;28;20056;-74
2021/01/23 00:15:45;;;;;;;11.60;4.22;;;;;;;7.18;72.51;99411.38;5077001;28;20075;-71
2021/01/23 00:18:21;;;;;;;15.05;4.30;;;;;;;6.96;73.37;99417.81;5078608;28;20546;-72
2021/01/23 00:20:48;;;;;;;13.73;4.63;;;;;;;6.93;73.08;99420.38;5082816;28;20054;-71
2021/01/23 00:23:15;;;;;;;14.02;4.80;;;;;;;6.83;73.33;99410.56;5083762;28;20055;-71
2021/01/23 00:25:48;;;;;;;12.07;4.03;;;;;;;6.81;73.37;99412.81;5094098;28;20052;-75
2021/01/23 00:28:15;;;;;;;13.82;4.20;;;;;;;6.90;73.40;99410.09;5094643;28;20059;-71
2021/01/23 00:30:42;;;;;;;13.00;4.10;;;;;;;6.98;73.27;99415.56;5059793;28;20047;-72
2021/01/23 00:33:16;;;;;;;10.52;3.92;;;;;;;6.85;73.17;99420.06;5095048;28;20066;-69
2021/01/23 00:35:44;;;;;;;10.43;4.13;;;;;;;6.77;73.74;99418.13;5093697;28;20048;-69
2021/01/23 00:38:16;;;;;;;14.40;4.63;;;;;;;6.68;74.15;99420.03;5093769;28;20063;-70
2021/01/23 00:40:46;;;;;;;12.98;4.28;;;;;;;6.70;73.56;99415.06;5093652;28;20051;-70
2021/01/23 00:43:13;;;;;;;11.80;4.22;;;;;;;6.68;74.19;99421.94;5075821;28;20048;-75
2021/01/23 00:45:40;;;;;;;8.25;3.83;;;;;;;6.72;74.14;99425.66;5093721;28;20047;-68
2021/01/23 00:48:10;;;;;;;11.38;4.20;;;;;;;6.67;73.96;99423.09;5094685;28;20055;-71
2021/01/23 00:50:39;;;;;;;11.50;4.57;;;;;;;6.78;73.84;99436.13;5095152;28;20044;-73
2021/01/23 00:53:06;;;;;;;11.13;4.70;;;;;;;6.63;74.53;99435.78;5094240;28;20044;-75
2021/01/23 00:55:33;;;;;;;16.25;4.30;;;;;;;6.79;73.47;99429.56;5059793;28;20498;-70
2021/01/23 00:58:00;;;;;;;14.23;4.80;;;;;;;6.78;73.20;99436.13;5093372;28;20063;-73
2021/01/23 01:00:27;;;;;;;10.38;3.83;;;;;;;6.66;73.65;99429.66;5094857;28;20058;-70
2021/01/23 01:02:54;;;;;;;12.55;4.05;;;;;;;6.73;74.11;99427.28;5095920;28;20055;-71
2021/01/23 01:05:32;;;;;;;11.75;3.88;;;;;;;6.76;73.52;99426.66;5078218;28;20051;-71
2021/01/23 01:08:03;;;;;;;10.27;3.97;;;;;;;6.76;73.78;99432.91;5095204;28;20048;-67
2021/01/23 01:10:30;;;;;;;11.02;3.88;;;;;;;6.80;73.13;99431.16;5095864;28;20055;-68
2021/01/23 01:13:05;;;;;;;12.05;3.53;;;;;;;6.63;73.91;99430.31;5078628;28;20048;-68
2021/01/23 01:15:32;;;;;;;13.93;3.92;;;;;;;6.45;74.34;99429.47;5077453;28;20047;-70
2021/01/23 01:17:59;;;;;;;8.82;4.20;;;;;;;6.53;74.26;99420.50;5095324;28;20052;-68
2021/01/23 01:20:26;;;;;;;12.20;4.35;;;;;;;6.50;74.16;99426.56;5094386;28;20541;-70
2021/01/23 01:22:53;;;;;;;9.38;3.53;;;;;;;6.64;74.14;99421.00;5076139;28;20047;-68
2021/01/23 01:25:20;;;;;;;9.70;3.63;;;;;;;6.72;73.93;99414.72;5092134;28;20517;-67
2021/01/23 01:27:47;;;;;;;9.48;3.67;;;;;;;6.58;73.81;99414.88;5092880;28;20048;-70
2021/01/23 01:30:14;;;;;;;10.50;4.03;;;;;;;6.48;74.32;99403.41;5092945;28;20451;-68
2021/01/23 01:32:41;;;;;;;13.93;4.07;;;;;;;6.50;74.55;99393.75;5092901;28;20360;-70
2021/01/23 01:35:09;;;;;;;14.23;4.47;;;;;;;6.37;74.86;99391.97;5093777;28;20133;-72
2021/01/23 01:37:36;;;;;;;15.07;4.30;;;;;;;6.39;74.67;99386.19;5092721;28;20399;-77
2021/01/23 01:40:05;;;;;;;11.27;3.90;;;;;;;6.40;74.74;99385.84;5092692;28;20056;-73
2021/01/23 01:42:33;;;;;;;16.42;3.97;;;;;;;6.41;74.19;99381.19;5093612;28;20043;-72
2021/01/23 01:45:05;;;;;;;9.90;3.50;;;;;;;6.25;74.97;99377.28;5076181;28;20399;-75
2021/01/23 01:47:33;;;;;;;8.90;3.65;;;;;;;6.62;73.86;99384.94;5074716;28;20391;-71
2021/01/23 01:50:01;;;;;;;11.55;3.65;;;;;;;6.35;74.71;99379.72;5092746;28;20063;-74
2021/01/23 01:52:28;;;;;;;14.68;3.58;;;;;;;6.37;74.44;99381.03;5093821;28;20051;-73
2021/01/23 01:54:55;;;;;;;12.35;3.95;;;;;;;6.36;74.85;99381.34;5092556;28;20491;-73
2021/01/23 01:57:23;;;;;;;12.07;3.53;;;;;;;6.34;74.54;99383.59;5093260;28;20044;-69
2021/01/23 01:59:50;;;;;;;10.57;4.03;;;;;;;6.30;74.75;99393.53;5093998;28;20391;-77
2021/01/23 02:02:46;;;;;;;12.57;3.40;;;;;;;6.27;74.84;99391.47;5075449;28;20137;-74
2021/01/23 02:05:26;;;;;;;13.52;3.53;;;;;;;6.40;74.48;99391.31;5075553;28;20052;-74
2021/01/23 02:07:59;;;;;;;13.52;4.20;;;;;;;6.43;74.18;99392.63;5076936;28;20052;-75
2021/01/23 02:10:26;;;;;;;9.32;3.60;;;;;;;6.31;74.79;99398.69;5075196;28;20048;-75
2021/01/23 02:13:09;;;;;;;11.02;3.67;;;;;;;6.22;74.83;99395.16;5092643;28;20044;-78
2021/01/23 02:15:41;;;;;;;12.65;3.42;;;;;;;6.07;75.25;99400.22;5076012;28;20040;-74
2021/01/23 02:18:12;;;;;;;12.48;4.25;;;;;;;6.11;75.10;99391.09;5094337;28;20048;-73
2021/01/23 02:21:12;;;;;;;11.82;3.75;;;;;;;6.24;75.12;99398.34;5058590;28;20059;-73
2021/01/23 02:23:45;;;;;;;17.42;3.97;;;;;;;6.27;74.78;99395.00;5075982;28;20056;-75
2021/01/23 02:26:35;;;;;;;13.40;3.50;;;;;;;6.53;73.94;99392.31;5093157;28;20056;-76
2021/01/23 02:29:23;;;;;;;10.70;3.15;;;;;;;6.10;74.98;99386.72;5093280;28;20063;-71
2021/01/23 02:31:57;;;;;;;10.32;3.47;;;;;;;6.05;75.30;99380.63;5075631;28;20051;-73
2021/01/23 02:34:26;;;;;;;13.02;3.45;;;;;;;6.21;74.82;99370.84;5075948;28;20047;-73
2021/01/23 02:36:54;;;;;;;10.10;3.35;;;;;;;6.21;74.76;99371.66;5077549;28;20044;-72
2021/01/23 02:39:23;;;;;;;12.68;3.40;;;;;;;6.03;75.19;99366.47;5097590;28;20052;-75
2021/01/23 02:41:53;;;;;;;12.98;3.50;;;;;;;6.05;75.70;99366.94;5097674;28;20507;-74
2021/01/23 02:44:20;;;;;;;12.02;3.35;;;;;;;5.95;75.37;99356.28;5097438;28;20044;-75
2021/01/23 02:46:53;;;;;;;12.38;3.92;;;;;;;6.00;75.56;99365.16;5096532;28;20071;-74
2021/01/23 02:49:20;;;;;;;12.13;3.80;;;;;;;5.95;75.27;99362.56;5097631;28;20063;-75
2021/01/23 02:52:33;;;;;;;14.52;4.55;;;;;;;5.84;76.15;99360.44;5078879;28;20052;-76
2021/01/23 02:55:05;;;;;;;13.15;3.33;;;;;;;6.00;75.72;99362.41;5096559;28;20479;-74
2021/01/23 02:57:32;;;;;;;11.73;3.97;;;;;;;5.89;75.68;99358.38;5079180;28;20052;-77
2021/01/23 03:00:05;;;;;;;9.70;3.35;;;;;;;5.87;75.56;99349.69;5079429;28;20058;-74
2021/01/23 03:02:53;;;;;;;7.57;3.25;;;;;;;5.73;75.81;99355.22;5078390;28;20048;-74
2021/01/23 03:05:24;;;;;;;11.23;3.40;;;;;;;6.02;75.20;99345.69;5096434;28;20059;-74
2021/01/23 03:07:52;;;;;;;14.57;3.90;;;;;;;5.73;75.68;99335.28;5079032;28;20051;-77
2021/01/23 03:14:46;;;;;;;8.25;3.00;;;;;;;5.64;76.17;99332.53;5097256;28;20043;-76
2021/01/23 03:17:13;;;;;;;11.27;3.40;;;;;;;5.78;75.42;99332.41;5096790;28;20044;-75
2021/01/23 03:19:40;;;;;;;8.18;3.22;;;;;;;5.73;75.55;99318.91;5096830;28;20040;-73
2021/01/23 03:22:07;;;;;;;11.90;3.13;;;;;;;5.73;75.67;99319.72;5078430;28;20398;-74
2021/01/23 03:24:34;;;;;;;12.90;3.35;;;;;;;5.82;75.50;99324.41;5096730;28;20044;-73
2021/01/23 03:27:01;;;;;;;13.00;3.90;;;;;;;5.78;75.48;99316.03;5096538;28;20044;-75
2021/01/23 03:29:29;;;;;;;13.52;3.72;;;;;;;5.65;75.76;99323.19;5062102;28;20052;-74
2021/01/23 03:31:56;;;;;;;9.20;2.95;;;;;;;5.79;75.42;99322.31;5078118;28;20044;-72
2021/01/23 03:34:23;;;;;;;14.23;3.92;;;;;;;5.83;74.93;99324.09;5077965;28;20522;-75
2021/01/23 03:36:50;;;;;;;13.40;3.78;;;;;;;5.70;75.45;99325.78;5095829;28;20055;-72
2021/01/23 03:39:17;;;;;;;10.73;3.10;;;;;;;5.90;75.10;99321.72;5095731;28;20052;-72
2021/01/23 03:46:12;;;;;;;10.27;3.58;;;;;;;5.86;75.48;99325.41;5096454;28;20055;-74
2021/01/23 03:48:40;;;;;;;13.20;3.75;;;;;;;5.79;75.27;99314.09;5095612;28;20055;-74
2021/01/23 03:51:07;;;;;;;10.88;3.08;;;;;;;5.71;75.30;99305.56;5095680;28;20052;-74
2021/01/23 03:53:33;;;;;;;14.30;3.88;;;;;;;5.66;75.64;99296.69;5095859;28;20499;-74
2021/01/23 04:00:29;;;;;;;11.50;3.38;;;;;;;5.46;76.65;99314.44;5095840;28;20040;-74
2021/01/23 04:02:56;;;;;;;11.48;3.55;;;;;;;5.38;76.86;99311.66;5095967;28;20406;-69
2021/01/23 04:05:23;;;;;;;16.95;4.40;;;;;;;5.43;76.47;99304.16;5094152;28;20059;-68
2021/01/23 04:07:57;;;;;;;13.90;3.85;;;;;;;5.55;76.67;99314.47;5094946;28;20055;-68
2021/01/23 04:10:26;;;;;;;;;;;;;;;5.45;76.54;99312.03;5093286;28;20387;-73
2021/01/23 04:12:57;;;;;;;14.43;4.55;;;;;;;5.24;77.27;99308.22;5094622;28;19920;-72
2021/01/23 04:15:27;;;;;;;12.65;3.97;;;;;;;5.35;77.19;99317.75;5078403;28;20040;-74
2021/01/23 04:18:00;;;;;;;16.55;4.13;;;;;;;5.48;76.51;99311.38;5094874;28;20052;-69
2021/01/23 04:20:30;;;;;;;9.95;3.95;;;;;;;5.22;76.86;99300.34;5092829;28;20056;-69
2021/01/23 04:22:57;;;;;;;10.07;3.70;;;;;;;5.22;77.66;99291.34;5095465;28;20056;-70
2021/01/23 04:25:24;;;;;;;10.45;3.85;;;;;;;5.20;77.33;99282.66;5060803;28;20044;-72
2021/01/23 04:27:51;;;;;;;10.40;3.85;;;;;;;5.24;77.40;99279.00;5077974;28;20055;-69
2021/01/23 04:30:18;;;;;;;9.48;4.07;;;;;;;5.29;77.37;99275.31;5094692;28;20040;-69
2021/01/23 04:32:45;;;;;;;13.38;4.30;;;;;;;5.30;77.58;99293.31;5095747;28;20414;-71
2021/01/23 04:35:13;;;;;;;11.40;4.22;;;;;;;5.22;77.75;99291.34;5095366;28;20051;-70
2021/01/23 04:37:40;;;;;;;12.38;3.92;;;;;;;5.26;77.78;99286.88;5077081;28;20048;-71
2021/01/23 04:40:18;;;;;;;11.13;3.97;;;;;;;5.37;77.55;99277.31;5076466;28;20051;-68
2021/01/23 04:42:45;;;;;;;11.57;3.63;;;;;;;5.37;76.96;99285.50;5060723;28;20052;-70
2021/01/23 04:45:13;;;;;;;12.50;4.45;;;;;;;5.48;77.37;99278.63;5076477;28;20048;-69
2021/01/23 04:48:07;;;;;;;10.52;4.45;;;;;;;5.51;77.01;99277.97;5089080;28;20082;-69
2021/01/23 04:50:35;;;;;;;11.35;4.28;;;;;;;5.32;77.58;99269.22;5094493;28;20040;-70
2021/01/23 04:53:03;;;;;;;15.65;4.50;;;;;;;5.32;77.94;99269.22;5094356;28;20052;-68
2021/01/23 04:55:36;;;;;;;14.88;4.85;;;;;;;5.47;77.84;99263.38;5089145;28;20052;-69
2021/01/23 04:58:06;;;;;;;17.90;4.45;;;;;;;5.44;77.17;99258.53;5094288;28;20056;-72
2021/01/23 05:00:33;;;;;;;18.35;5.03;;;;;;;5.47;77.01;99255.19;5091569;28;20051;-69
2021/01/23 05:03:05;;;;;;;14.13;4.28;;;;;;;5.36;77.07;99256.56;5093966;28;20059;-73
2021/01/23 05:05:34;;;;;;;11.15;3.75;;;;;;;5.43;76.93;99243.25;5096108;28;20395;-72
2021/01/23 05:08:13;;;;;;;13.68;4.53;;;;;;;5.58;76.73;99240.91;5096183;28;20044;-69
2021/01/23 05:10:44;;;;;;;10.65;3.95;;;;;;;5.40;77.19;99249.38;5077848;28;20052;-74
2021/01/23 05:13:16;;;;;;;10.30;3.50;;;;;;;5.47;76.73;99241.53;5094916;28;20040;-72
2021/01/23 05:15:44;;;;;;;14.93;4.85;;;;;;;5.43;76.73;99240.53;5094889;28;20051;-73
2021/01/23 05:18:13;;;;;;;12.07;3.90;;;;;;;5.61;75.95;99229.34;5094471;28;20055;-71
2021/01/23 05:20:44;;;;;;;13.70;4.20;;;;;;;5.53;76.45;99232.06;5094042;28;20048;-72
2021/01/23 05:23:30;;;;;;;10.35;3.88;;;;;;;5.59;76.27;99225.34;5059387;28;20059;-71
2021/01/23 05:29:59;;;;;;;10.35;3.80;;;;;;;5.35;76.63;99223.00;5094429;28;20035;-72
2021/01/23 05:32:26;;;;;;;10.05;4.32;;;;;;;5.29;77.04;99224.25;5076072;28;20063;-72
2021/01/23 05:34:53;;;;;;;12.90;3.40;;;;;;;5.25;77.46;99211.53;5093691;28;20047;-70
2021/01/23 05:37:31;;;;;;;16.67;4.30;;;;;;;5.23;77.47;99211.09;5093288;28;20391;-73
2021/01/23 05:39:58;;;;;;;14.40;3.85;;;;;;;5.40;76.81;99197.50;5075560;28;20059;-72
2021/01/23 05:46:53;;;;;;;10.30;3.47;;;;;;;5.48;76.33;99170.22;5093394;28;20052;-73
2021/01/23 05:49:21;;;;;;;19.42;5.13;;;;;;;5.36;76.97;99174.66;5094216;28;20044;-71
2021/01/23 05:51:49;;;;;;;13.45;4.40;;;;;;;5.25;77.37;99165.16;5093797;28;20036;-71
2021/01/23 05:54:16;;;;;;;15.15;4.15;;;;;;;5.14;78.39;99167.38;5076137;28;20044;-73
2021/01/23 06:01:16;;;;;;;13.23;5.00;;;;;;;4.97;78.81;99158.31;5093793;28;20049;-74
2021/01/23 06:03:45;;;;;;;12.93;4.43;;;;;;;4.86;79.04;99155.06;5092905;28;20067;-72
2021/01/23 06:06:12;;;;;;;12.13;5.13;;;;;;;4.94;79.05;99150.75;5093694;28;20491;-72
2021/01/23 06:08:48;;;;;;;14.52;5.35;;;;;;;4.97;79.09;99152.88;5075626;28;20056;-72
2021/01/23 06:11:17;;;;;;;13.00;4.65;;;;;;;5.21;78.22;99142.34;5074744;28;20513;-73
2021/01/23 06:13:51;;;;;;;16.15;4.85;;;;;;;5.23;77.80;99140.13;5074563;28;20052;-74
2021/01/23 06:16:34;;;;;;;13.18;4.97;;;;;;;5.20;77.97;99140.72;5092982;28;20056;-77
2021/01/23 06:19:04;;;;;;;12.32;5.35;;;;;;;5.21;77.90;99136.91;5093434;28;20426;-73
2021/01/23 06:21:43;;;;;;;13.13;5.38;;;;;;;5.07;78.49;99122.56;5093480;28;20051;-74
2021/01/23 06:24:14;;;;;;;11.40;4.97;;;;;;;5.04;78.69;99115.78;5093288;28;20507;-73
2021/01/23 06:26:53;;;;;;;14.75;5.30;;;;;;;4.99;79.21;99112.41;5074978;28;20305;-72
2021/01/23 06:29:45;;;;;;;15.77;5.75;;;;;;;4.87;80.25;99106.75;5093167;28;20059;-72
2021/01/23 06:32:12;;;;;;;12.05;5.32;;;;;;;5.04;80.07;99090.44;5059169;28;20055;-72
2021/01/23 06:34:58;;;;;;;15.57;6.68;;;;;;;5.13;79.27;99085.81;5093265;28;20395;-73
2021/01/23 06:37:37;;;;;;;15.13;7.10;;;;;;;5.14;80.00;99074.59;5075028;28;20048;-70
2021/01/23 06:40:17;;;;;;;17.10;7.33;;;;;;;5.21;79.73;99068.66;5093099;28;20063;-72
2021/01/23 06:42:49;;;;;;;18.05;7.18;;;;;;;5.38;79.21;99068.69;5075335;28;20309;-69
2021/01/23 06:45:21;;;;;;;14.35;7.43;;;;;;;5.16;79.83;99066.88;5075705;28;20040;-74
2021/01/23 06:47:56;;;;;;;15.10;8.05;;;;;;;5.09;80.02;99065.75;5092894;28;20414;-72
2021/01/23 06:50:33;;;;;;;19.20;8.85;;;;;;;5.21;79.69;99063.97;5093174;28;20060;-73
2021/01/23 06:53:02;;;;;;;18.50;9.75;;;;;;;4.83;81.28;99065.66;5092722;28;20048;-71
2021/01/23 06:55:59;;;;;;;18.15;9.82;;;;;;;4.82;82.56;99052.34;5075086;28;20080;-73
2021/01/23 06:58:34;;;;;;;21.25;9.25;;;;;;;5.00;81.85;99048.53;5011066;28;20077;-71
2021/01/23 07:01:02;;;;;;;22.10;9.73;;;;;;;5.12;81.73;99049.53;4995132;28;20054;-72
2021/01/23 07:03:35;;;;;;;19.13;9.43;;;;;;;4.93;82.09;99048.19;5011181;28;20054;-73
2021/01/23 07:06:03;;;;;;;16.48;8.75;;;;;;;4.80;82.56;99041.75;4996079;28;20422;-73
2021/01/23 07:08:32;;;;;;;21.67;8.52;;;;;;;4.87;83.72;99035.81;4994817;28;20497;-68
2021/01/23 07:11:17;;;;;;;21.00;9.10;;;;;;;4.88;83.88;99040.16;5010298;28;20401;-71
2021/01/23 07:14:01;;;;;;;15.32;8.57;;;;;;;4.93;84.14;99035.38;5010349;28;20046;-71
2021/01/23 07:16:31;;;;;;;19.92;9.30;;;;;;;5.16;82.92;99020.47;4994589;28;20046;-72
2021/01/23 07:19:16;;;;;;;20.65;8.30;;;;;;;5.16;83.48;99014.22;5011046;28;20053;-70
2021/01/23 07:21:45;;;;;;;20.42;7.35;;;;;;;5.03;83.09;99006.97;5013008;28;20046;-71
2021/01/23 07:24:12;;;;;;;17.23;9.07;;;;;;;5.05;83.04;99002.00;5015967;28;20046;-71
2021/01/23 07:31:29;;;;;;;14.90;8.13;;;;;;;5.05;82.83;98985.63;5015855;28;20145;-70
2021/01/23 07:34:13;;;;;;;14.55;7.70;;;;;;;5.27;82.60;98978.09;5026125;28;20046;-69
2021/01/23 07:36:47;;;;;;;15.43;7.38;;;;;;;5.29;82.02;98984.06;5079569;28;20048;-69
2021/01/23 07:39:26;;;;;;;14.07;7.35;;;;;;;5.30;81.69;98973.94;5098069;28;20040;-69
2021/01/23 07:46:20;;;;;;;18.00;7.60;;;;;;;5.22;82.50;98969.28;5096381;28;20040;-69
2021/01/23 07:49:21;;;;;;;17.40;7.88;;;;;;;4.87;83.91;98970.34;5080330;28;20052;-68
2021/01/23 07:52:10;;;;;;;15.63;7.63;;;;;;;4.95;83.92;98961.41;5096256;28;20044;-77
2021/01/23 07:54:50;;;;;;;14.48;7.47;;;;;;;4.94;83.90;98962.50;5095337;28;20384;-74
2021/01/23 07:57:16;;;;;;;14.57;7.18;;;;;;;4.94;84.30;98963.31;5095723;28;20051;-71
2021/01/23 07:59:47;;;;;;;14.93;7.18;;;;;;;4.93;84.96;98956.25;5096292;28;20052;-73
2021/01/23 08:02:17;;;;;;;13.23;6.78;;;;;;;4.92;84.70;98953.81;5092987;28;20181;-73
2021/01/23 08:04:52;;;;;;;15.68;6.50;;;;;;;5.05;84.83;98944.72;5095584;28;20063;-73
2021/01/23 08:07:26;;;;;;;;;;;;;;;5.03;83.53;98938.75;5096521;28;20048;-75
2021/01/23 08:10:12;;;;;;;9.25;4.95;;;;;;;4.88;84.08;98936.50;5077378;28;20393;-74
2021/01/23 08:12:41;;;;;;;11.27;5.00;;;;;;;5.02;84.30;98929.75;5095422;28;20052;-73
2021/01/23 08:15:11;;;;;;;8.75;4.60;;;;;;;5.05;84.19;98939.25;5095302;28;20064;-72
2021/01/23 08:17:45;;;;;;;8.50;4.55;;;;;;;5.04;83.67;98935.72;5097203;28;20063;-75
2021/01/23 08:20:15;;;;;;;7.40;3.80;;;;;;;5.18;83.50;98919.16;5097722;28;20052;-75
2021/01/23 08:22:58;;;;;;;8.38;3.90;;;;;;;5.12;83.25;98915.81;5098218;28;20052;-72
2021/01/23 08:25:29;;;;;;;8.60;4.20;;;;;;;5.19;82.78;98907.16;5098644;28;20052;-75
2021/01/23 08:27:57;;;;;;;8.57;3.58;;;;;;;5.36;81.91;98909.84;5096999;28;20051;-69
2021/01/23 08:30:25;;;;;;;8.38;3.80;;;;;;;5.19;83.15;98904.41;5095340;28;20071;-74
2021/01/23 08:32:53;;;;;;;8.18;3.95;;;;;;;5.55;82.47;98902.13;5095916;28;20479;-72
2021/01/23 08:35:27;;;;;;;9.70;4.05;;;;;;;5.53;82.21;98898.91;5094281;28;20055;-75
2021/01/23 08:37:55;;;;;;;6.55;3.63;;;;;;;5.50;82.46;98884.00;5078527;28;20043;-72
2021/01/23 08:40:23;;;;;;;7.32;3.85;;;;;;;5.35;82.56;98875.50;5094779;28;20059;-74
2021/01/23 08:42:51;;;;;;;10.00;4.15;;;;;;;5.15;83.51;98876.97;5092246;28;20052;-77
2021/01/23 08:45:20;;;;;;;7.72;3.42;;;;;;;5.32;83.23;98855.09;5095089;28;20048;-78
2021/01/23 08:47:50;;;;;;;7.95;3.45;;;;;;;5.30;82.12;98846.44;5094242;28;20056;-76
2021/01/23 08:50:18;;;;;;;6.35;3.00;;;;;;;5.20;82.13;98845.97;5095275;28;20055;-75
2021/01/23 08:52:45;;;;;;;5.22;2.55;;;;;;;5.27;81.42;98825.25;5094550;28;20487;-76
2021/01/23 08:55:12;;;;;;;4.57;2.08;;;;;;;5.18;81.00;98820.94;5095541;28;20059;-77
2021/01/23 08:57:40;;;;;;;7.82;3.20;;;;;;;4.99;82.15;98824.00;5078324;28;20047;-75
2021/01/23 09:00:09;;;;;;;7.28;2.90;;;;;;;4.99;82.67;98825.94;5094932;28;20059;-79
2021/01/23 09:02:36;;;;;;;6.32;2.70;;;;;;;5.50;84.47;98813.00;5097878;28;20051;-72
2021/01/23 09:05:04;;;;;;;4.93;2.40;;;;;;;5.93;82.84;98812.06;5095903;28;20048;-74
2021/01/23 09:07:31;;;;;;;6.15;3.03;;;;;;;6.06;82.32;98789.94;5095364;28;20059;-71
2021/01/23 09:09:58;;;;;;;6.03;3.03;;;;;;;5.77;81.71;98789.13;5075837;28;20550;-73
2021/01/23 09:12:25;;;;;;;5.28;2.50;;;;;;;6.30;81.60;98778.38;5094201;28;20388;-73
2021/01/23 09:14:53;;;;;;;7.05;2.60;;;;;;;6.36;79.44;98772.38;5059443;28;20399;-75
2021/01/23 09:17:20;;;;;;;8.05;2.72;;;;;;;6.62;78.76;98769.44;5076201;28;20426;-72
2021/01/23 09:19:47;;;;;;;5.65;2.40;;;;;;;6.69;78.91;98764.25;5094397;28;20044;-74
2021/01/23 09:22:14;;;;;;;6.82;2.90;;;;;;;6.40;78.64;98758.81;5094484;28;20039;-75
2021/01/23 09:24:41;;;;;;;6.78;2.72;;;;;;;6.53;79.30;98765.97;5094086;28;20403;-73
2021/01/23 09:27:08;;;;;;;9.07;2.80;;;;;;;6.47;79.24;98750.88;5094181;28;20071;-74
2021/01/23 09:34:03;;;;;;;7.80;3.40;;;;;;;6.11;80.36;98746.03;5076061;28;20047;-74
2021/01/23 09:36:31;;;;;;;8.45;3.03;;;;;;;6.05;80.58;98730.94;5093971;28;20048;-74
2021/01/23 09:38:59;;;;;;;8.15;2.72;;;;;;;6.07;81.05;98730.59;5093816;28;20067;-73
2021/01/23 09:41:26;;;;;;;6.75;2.58;;;;;;;5.97;81.10;98731.00;5094382;28;20055;-78
2021/01/23 09:48:21;;;;;;;6.38;2.30;;;;;;;5.67;82.58;98722.00;5093083;28;20054;-79
2021/01/23 09:50:48;;;;;;;7.03;2.50;;;;;;;5.86;82.17;98716.94;5042001;28;20066;-74
2021/01/23 09:53:16;;;;;;;5.32;2.30;;;;;;;5.78;82.62;98712.28;5093966;28;20039;-74
2021/01/23 09:55:42;;;;;;;5.82;2.25;;;;;;;5.70;83.42;98711.22;5075333;28;20040;-78
2021/01/23 10:02:36;;;;;;;6.72;2.65;;;;;;;5.98;83.14;98713.50;5092922;28;20044;-79
2021/01/23 10:05:04;;;;;;;5.30;2.00;;;;;;;6.00;82.69;98714.75;5092987;28;20506;-76
2021/01/23 10:07:31;;;;;;;8.77;2.13;;;;;;;6.04;82.67;98714.88;5075112;28;20052;-76
2021/01/23 10:09:57;;;;;;;5.60;1.60;;;;;;;5.92;83.16;98706.59;5093406;28;20488;-80
2021/01/23 10:12:28;;;;;;;6.72;2.15;;;;;;;6.04;83.27;98712.97;5075298;28;20052;-80
2021/01/23 10:19:22;;;;;;;11.20;4.20;;;;;;;6.06;83.17;98710.69;5093247;28;20044;-76
2021/01/23 10:21:49;;;;;;;9.88;4.00;;;;;;;6.13;83.49;98705.50;5091820;28;20059;-74
2021/01/23 10:24:16;;;;;;;5.95;2.38;;;;;;;6.20;82.91;98700.31;5091355;28;20488;-80
2021/01/23 10:26:43;;;;;;;8.35;2.60;;;;;;;6.27;83.12;98703.31;5091775;28;20048;-76
2021/01/23 10:33:46;;;;;;;8.13;2.00;;;;;;;6.48;82.63;98697.81;5092377;28;20059;-80
2021/01/23 10:36:13;;;;;;;7.25;1.88;;;;;;;6.57;82.22;98693.06;5075445;28;20048;-73
2021/01/23 10:38:40;;;;;;;6.55;2.15;;;;;;;6.56;82.18;98694.19;5092641;28;20059;-75
2021/01/23 10:41:07;;;;;;;7.38;2.25;;;;;;;6.56;82.30;98692.25;5093428;28;20052;-72
2021/01/23 10:43:34;;;;;;;9.43;4.50;;;;;;;6.62;82.23;98690.94;5091997;28;20502;-74
2021/01/23 10:46:03;;;;;;;7.78;3.22;;;;;;;6.70;81.23;98686.50;5081436;28;20048;-80
2021/01/23 10:48:30;;;;;;;8.32;2.90;;;;;;;6.55;82.10;98677.00;5094933;28;20094;-73
2021/01/23 10:50:57;;;;;;;11.73;3.03;;;;;;;6.58;82.31;98673.59;5093163;28;20056;-75
2021/01/23 10:53:24;;;;;;;6.70;2.50;;;;;;;6.72;81.78;98670.53;5075312;28;20387;-73
2021/01/23 10:55:51;;;;;;;6.63;2.42;;;;;;;6.99;81.27;98671.88;5092665;28;20051;-70
2021/01/23 10:58:18;;;;;;;6.90;2.40;;;;;;;6.84;80.38;98674.13;5096045;28;20428;-72
2021/01/23 11:00:45;;;;;;;8.02;2.97;;;;;;;7.01;81.06;98675.84;5078989;28;20483;-74
2021/01/23 11:03:13;;;;;;;6.47;2.75;;;;;;;7.16;80.09;98666.19;5096674;28;20505;-72
2021/01/23 11:05:40;;;;;;;7.05;2.60;;;;;;;7.25;79.60;98669.63;5078635;28;20063;-71
2021/01/23 11:08:06;;;;;;;6.53;3.03;;;;;;;7.24;79.49;98676.22;5078075;28;20055;-73
2021/01/23 11:10:36;;;;;;;6.50;2.40;;;;;;;7.31;79.69;98671.78;5096670;28;20479;-75
2021/01/23 11:13:03;;;;;;;6.38;2.95;;;;;;;7.26;79.11;98663.00;5095830;28;20048;-71
2021/01/23 11:15:30;;;;;;;10.88;3.72;;;;;;;7.12;79.68;98670.72;5096438;28;20052;-75
2021/01/23 11:17:57;;;;;;;6.05;2.70;;;;;;;7.34;79.49;98670.31;5076727;28;20062;-73
2021/01/23 11:20:24;;;;;;;8.82;3.00;;;;;;;7.28;79.60;98675.22;5077621;28;20055;-69
2021/01/23 11:22:51;;;;;;;13.75;3.67;;;;;;;7.19;79.58;98676.44;5096224;28;20044;-70
2021/01/23 11:25:18;;;;;;;9.18;3.22;;;;;;;7.24;79.95;98673.47;5078751;28;20052;-76
2021/01/23 11:27:44;;;;;;;8.25;3.58;;;;;;;7.28;80.00;98669.75;5096312;28;20162;-74
2021/01/23 11:34:39;;;;;;;8.23;3.65;;;;;;;7.39;79.73;98659.13;5096552;28;20032;-71
2021/01/23 11:37:10;;;;;;;9.23;3.80;;;;;;;7.34;79.94;98662.09;5078119;28;20044;-72
2021/01/23 11:39:37;;;;;;;11.07;3.90;;;;;;;7.40;80.50;98666.19;5095504;28;20395;-70
2021/01/23 11:42:08;;;;;;;8.48;3.65;;;;;;;7.53;80.14;98651.38;5079200;28;20047;-70
2021/01/23 11:49:12;;;;;;;7.75;3.47;;;;;;;7.75;78.88;98654.44;5098576;28;20036;-69
2021/01/23 11:51:39;;;;;;;11.45;3.72;;;;;;;7.99;77.54;98651.63;5098225;28;20048;-67
2021/01/23 11:54:06;;;;;;;7.90;3.72;;;;;;;7.97;77.21;98651.19;5095505;28;20044;-68
2021/01/23 11:56:33;;;;;;;12.63;5.10;;;;;;;8.10;76.46;98642.91;5095383;28;20048;-67
2021/01/23 11:59:00;;;;;;;13.18;4.90;;;;;;;8.13;75.80;98643.03;5095972;28;20052;-66
2021/01/23 12:01:29;;;;;;;17.10;5.72;;;;;;;8.07;75.58;98633.47;5094930;28;20609;-68
2021/01/23 12:03:58;;;;;;;9.63;3.58;;;;;;;8.27;74.81;98627.00;5095484;28;20052;-68
2021/01/23 12:06:28;;;;;;;9.02;2.25;;;;;;;8.28;74.05;98631.34;5094977;28;20506;-66
2021/01/23 12:08:57;;;;;;;5.05;1.70;;;;;;;8.31;73.60;98633.41;5094688;28;20044;-68
2021/01/23 12:11:27;;;;;;;7.45;1.90;;;;;;;8.26;71.36;98630.91;5043672;28;20055;-68
2021/01/23 12:13:54;;;;;;;11.05;2.55;;;;;;;7.94;72.37;98627.22;5095432;28;20479;-72
2021/01/23 12:16:21;;;;;;;12.18;2.33;;;;;;;7.89;73.36;98632.94;5095512;28;20067;-71
2021/01/23 12:18:48;;;;;;;8.18;1.90;;;;;;;8.03;73.10;98632.56;5093645;28;20048;-72
2021/01/23 12:21:15;;;;;;;7.82;2.03;;;;;;;8.03;71.66;98621.59;5094856;28;20059;-73
2021/01/23 12:23:53;;;;;;;7.78;2.40;;;;;;;8.33;70.60;98633.84;5095079;28;20407;-75
2021/01/23 12:26:20;;;;;;;14.02;2.10;;;;;;;8.42;70.87;98630.97;5095358;28;20448;-75
2021/01/23 12:28:56;;;;;;;8.07;2.28;;;;;;;8.27;71.37;98628.94;5094379;28;20059;-76
2021/01/23 12:31:31;;;;;;;8.73;2.13;;;;;;;8.28;71.63;98625.84;5094268;28;20418;-72
2021/01/23 12:34:00;;;;;;;8.98;2.60;;;;;;;8.38;72.37;98625.38;5094230;28;20047;-71
2021/01/23 12:36:50;;;;;;;7.70;2.05;;;;;;;8.53;70.95;98627.34;5053953;28;20064;-75
2021/01/23 12:39:32;;;;;;;11.00;2.60;;;;;;;8.28;71.76;98620.38;5094988;28;20051;-70
2021/01/23 12:42:11;;;;;;;8.32;2.17;;;;;;;8.21;72.26;98625.63;5076081;28;20079;-73
2021/01/23 12:44:38;;;;;;;9.27;2.42;;;;;;;8.15;72.45;98629.78;5076226;28;20055;-71
2021/01/23 12:47:07;;;;;;;9.52;2.30;;;;;;;7.47;75.01;98628.06;5077206;28;20044;-75
2021/01/23 12:49:34;;;;;;;9.73;2.03;;;;;;;7.43;76.42;98630.69;5092061;28;20487;-74
2021/01/23 12:52:01;;;;;;;8.32;2.10;;;;;;;7.27;76.68;98626.28;5094761;28;20040;-76
2021/01/23 12:54:30;;;;;;;6.32;2.05;;;;;;;7.25;76.15;98628.56;5083900;28;20059;-75
2021/01/23 12:56:57;;;;;;;5.38;1.85;;;;;;;7.34;75.83;98626.50;5093701;28;20522;-70
2021/01/23 12:59:42;;;;;;;5.05;1.60;;;;;;;7.00;75.64;98629.66;5086332;28;20047;-71